Time;durP1;ratioP1;P1;durP2;ratioP2;P2;SDS_P1;SDS_P2;PMS_P1;PMS_P2;Temp;Humidity;BMP_temperature;BMP_pressure;BME280_temperature;BME280_humidity;BME280_pressure;Samples;Min_cycle;Max_cycle;Signal;HPM_P1;HPM_P2
2020/12/29 00:00:19;;;;;;;8.77;7.23;;;3.70;99.90;;;;;;5094216;28;20215;-61
2020/12/29 00:02:45;;;;;;;14.00;7.37;;;3.50;99.70;;;;;;5095464;28;20184;-61
2020/12/29 00:05:10;;;;;;;10.13;7.97;;;3.50;99.90;;;;;;5095549;28;20180;-61
2020/12/29 00:07:36;;;;;;;13.43;8.73;;;3.50;99.90;;;;;;5095317;28;20184;-61
2020/12/29 00:10:02;;;;;;;12.37;8.50;;;3.50;99.90;;;;;;5095457;28;20218;-61
2020/12/29 00:12:27;;;;;;;10.95;8.50;;;3.50;99.90;;;;;;5095551;28;20180;-61
2020/12/29 00:14:53;;;;;;;10.37;6.93;;;3.40;99.90;;;;;;5095146;28;20176;-61
2020/12/29 00:17:18;;;;;;;11.53;7.53;;;3.50;99.90;;;;;;5095120;28;20180;-61
2020/12/29 00:19:44;;;;;;;9.93;7.67;;;3.50;99.90;;;;;;5095413;28;20191;-61
2020/12/29 00:22:09;;;;;;;12.83;9.30;;;3.40;99.90;;;;;;5095274;28;20628;-61
2020/12/29 00:24:35;;;;;;;14.00;8.70;;;3.20;99.90;;;;;;5093801;28;20215;-61
2020/12/29 00:27:04;;;;;;;10.20;7.27;;;3.20;99.90;;;;;;5093811;28;20588;-61
2020/12/29 00:29:30;;;;;;;9.88;6.97;;;3.20;99.90;;;;;;5094858;28;20672;-61
2020/12/29 00:31:56;;;;;;;11.98;7.30;;;3.20;99.90;;;;;;5095033;28;20180;-61
2020/12/29 00:34:22;;;;;;;9.73;6.57;;;3.20;99.90;;;;;;5095401;28;20180;-61
2020/12/29 00:36:51;;;;;;;11.00;7.90;;;3.10;99.90;;;;;;5095162;28;20567;-61
2020/12/29 00:39:16;;;;;;;8.93;6.22;;;3.10;99.90;;;;;;5094730;28;20183;-61
2020/12/29 00:41:42;;;;;;;10.20;7.40;;;3.00;93.00;;;;;;5094397;28;20199;-61
2020/12/29 00:44:07;;;;;;;10.80;7.37;;;3.00;90.40;;;;;;5093711;28;20514;-61
2020/12/29 00:46:33;;;;;;;8.50;6.90;;;3.00;89.60;;;;;;5094538;28;20593;-61
2020/12/29 00:48:59;;;;;;;8.93;6.60;;;3.00;85.50;;;;;;5094545;28;20184;-61
2020/12/29 00:51:24;;;;;;;9.40;7.43;;;3.00;75.00;;;;;;5094180;28;20180;-61
2020/12/29 00:53:50;;;;;;;10.53;7.60;;;3.20;70.90;;;;;;5094339;28;20518;-61
2020/12/29 00:56:15;;;;;;;12.60;7.07;;;3.00;52.50;;;;;;5094497;28;20668;-61
2020/12/29 00:58:41;;;;;;;9.73;7.23;;;2.70;21.50;;;;;;5094405;28;20176;-61
2020/12/29 01:01:09;;;;;;;9.77;8.20;;;2.70;25.90;;;;;;5094540;28;20669;-61
2020/12/29 01:03:35;;;;;;;9.43;6.80;;;2.70;33.70;;;;;;5094053;28;20181;-61
2020/12/29 01:06:01;;;;;;;10.05;6.85;;;2.90;48.00;;;;;;5094269;28;20475;-61
2020/12/29 01:08:26;;;;;;;12.23;8.40;;;2.80;44.50;;;;;;5094254;28;20180;-61
2020/12/29 01:10:56;;;;;;;9.87;6.87;;;2.80;34.80;;;;;;5094409;28;20264;-61
2020/12/29 01:13:22;;;;;;;19.35;10.98;;;2.70;25.70;;;;;;5094067;28;20300;-61
2020/12/29 01:15:49;;;;;;;10.20;6.88;;;2.70;25.40;;;;;;5094331;28;20567;-61
2020/12/29 01:18:14;;;;;;;17.52;11.60;;;2.70;28.50;;;;;;5093935;28;20562;-61
2020/12/29 01:20:40;;;;;;;9.93;7.37;;;2.80;30.70;;;;;;5094099;28;20179;-61
2020/12/29 01:23:05;;;;;;;8.57;5.90;;;2.80;28.90;;;;;;5093929;28;20252;-62
2020/12/29 01:25:31;;;;;;;8.73;7.30;;;3.00;31.80;;;;;;5094085;28;20176;-62
2020/12/29 01:27:57;;;;;;;8.27;6.87;;;2.90;20.00;;;;;;5093814;28;20341;-61
2020/12/29 01:30:23;;;;;;;9.48;6.65;;;2.80;4.20;;;;;;5093862;28;20257;-61
2020/12/29 01:32:48;;;;;;;7.53;6.40;;;2.70;1.00;;;;;;5093630;28;20191;-61
2020/12/29 01:35:14;;;;;;;9.00;6.60;;;2.60;4.60;;;;;;5093407;28;20196;-61
2020/12/29 01:37:44;;;;;;;9.30;7.00;;;2.70;13.20;;;;;;5093878;28;20172;-61
2020/12/29 01:40:14;;;;;;;8.00;7.07;;;2.70;13.80;;;;;;5093848;28;20425;-61
2020/12/29 01:42:40;;;;;;;9.10;6.95;;;2.60;11.40;;;;;;5093821;28;20245;-61
2020/12/29 01:45:11;;;;;;;8.27;5.97;;;2.50;7.80;;;;;;5093597;28;20213;-61
2020/12/29 01:47:38;;;;;;;10.32;7.45;;;2.50;15.40;;;;;;5093769;28;20613;-61
2020/12/29 01:50:17;;;;;;;8.55;6.55;;;2.60;21.20;;;;;;5093489;28;20530;-61
2020/12/29 01:52:45;;;;;;;9.48;7.55;;;2.70;22.20;;;;;;5093781;28;20274;-61
2020/12/29 01:55:11;;;;;;;9.90;7.38;;;2.60;18.20;;;;;;5092194;28;20518;-61
2020/12/29 01:57:37;;;;;;;9.50;6.90;;;2.60;15.90;;;;;;5093590;28;20190;-61
2020/12/29 02:00:08;;;;;;;11.95;7.50;;;2.70;14.60;;;;;;5091843;28;20320;-61
2020/12/29 02:02:34;;;;;;;10.50;7.20;;;2.60;8.00;;;;;;5093276;28;20178;-61
2020/12/29 02:05:00;;;;;;;10.35;6.60;;;2.60;9.60;;;;;;5093871;28;20208;-61
2020/12/29 02:07:26;;;;;;;7.83;6.33;;;2.70;17.00;;;;;;5093416;28;20176;-61
2020/12/29 02:09:53;;;;;;;8.93;7.22;;;2.60;16.00;;;;;;5093441;28;20469;-62
2020/12/29 02:12:27;;;;;;;8.57;7.05;;;2.40;13.90;;;;;;5093882;28;20178;-62
2020/12/29 02:14:53;;;;;;;9.20;7.10;;;2.40;19.10;;;;;;5093492;28;20184;-61
2020/12/29 02:17:19;;;;;;;9.07;6.88;;;2.40;30.80;;;;;;5094042;28;20627;-61
2020/12/29 02:19:45;;;;;;;8.77;7.03;;;2.50;38.10;;;;;;5093826;28;20179;-61
2020/12/29 02:22:19;;;;;;;8.30;6.72;;;2.50;41.20;;;;;;5094030;28;20916;-61
2020/12/29 02:24:50;;;;;;;8.02;6.55;;;2.40;39.80;;;;;;5093748;28;20225;-61
2020/12/29 02:27:16;;;;;;;11.55;7.00;;;2.50;50.60;;;;;;5094078;28;20498;-61
2020/12/29 02:29:41;;;;;;;9.83;8.07;;;2.50;47.60;;;;;;5093897;28;20208;-61
2020/12/29 02:32:07;;;;;;;9.57;6.90;;;2.50;45.80;;;;;;5092907;28;20479;-61
2020/12/29 02:34:36;;;;;;;10.10;6.53;;;2.50;40.00;;;;;;5093636;28;20172;-61
2020/12/29 02:37:05;;;;;;;8.52;6.95;;;2.40;39.40;;;;;;5093913;28;20175;-61
2020/12/29 02:39:33;;;;;;;7.95;6.35;;;2.40;39.70;;;;;;5093881;28;20505;-60
2020/12/29 02:41:59;;;;;;;9.55;7.13;;;2.50;45.90;;;;;;5093875;28;20176;-58
2020/12/29 02:44:25;;;;;;;10.05;7.40;;;2.50;48.40;;;;;;5093454;28;20249;-58
2020/12/29 02:46:51;;;;;;;9.47;6.60;;;2.60;44.30;;;;;;5093714;28;20187;-58
2020/12/29 02:49:17;;;;;;;7.75;6.60;;;2.60;38.50;;;;;;5093696;28;20498;-58
2020/12/29 02:51:43;;;;;;;10.85;7.88;;;2.60;35.00;;;;;;5093774;28;20173;-60
2020/12/29 02:54:14;;;;;;;8.35;6.65;;;2.50;24.90;;;;;;5093488;28;20182;-58
2020/12/29 02:56:44;;;;;;;9.15;6.68;;;2.40;27.60;;;;;;5093691;28;20240;-59
2020/12/29 02:59:11;;;;;;;8.32;6.63;;;2.30;29.80;;;;;;5093633;28;20199;-60
2020/12/29 03:01:36;;;;;;;10.18;7.03;;;2.40;37.00;;;;;;5093586;28;20176;-58
2020/12/29 03:04:02;;;;;;;9.07;7.03;;;2.40;39.00;;;;;;5093436;28;20176;-58
2020/12/29 03:06:28;;;;;;;7.10;5.90;;;2.30;36.70;;;;;;5094144;28;20422;-59
2020/12/29 03:08:53;;;;;;;10.13;7.13;;;2.30;46.60;;;;;;5097439;28;20421;-59
2020/12/29 03:11:30;;;;;;;9.60;6.17;;;2.30;50.30;;;;;;5097098;28;20663;-59
2020/12/29 03:14:01;;;;;;;8.50;6.55;;;2.20;53.20;;;;;;5097116;28;20616;-61
2020/12/29 03:16:27;;;;;;;7.85;5.90;;;2.20;62.00;;;;;;5097218;28;20168;-58
2020/12/29 03:18:54;;;;;;;8.82;6.25;;;2.20;64.90;;;;;;5096330;28;20259;-59
2020/12/29 03:21:20;;;;;;;7.93;6.75;;;2.10;66.10;;;;;;5096433;28;20194;-60
2020/12/29 03:23:46;;;;;;;7.63;6.80;;;2.20;77.50;;;;;;5096895;28;20612;-58
2020/12/29 03:26:12;;;;;;;9.48;7.45;;;2.20;83.60;;;;;;5096900;28;20176;-60
2020/12/29 03:28:38;;;;;;;10.50;8.10;;;2.40;90.10;;;;;;5096948;28;20176;-58
2020/12/29 03:31:07;;;;;;;9.50;7.23;;;2.30;88.30;;;;;;5095766;28;20472;-58
2020/12/29 03:33:33;;;;;;;8.55;7.10;;;2.20;81.50;;;;;;5096765;28;20429;-58
2020/12/29 03:35:59;;;;;;;10.37;8.30;;;2.00;89.40;;;;;;5095602;28;20267;-58
2020/12/29 03:38:25;;;;;;;9.63;7.18;;;2.20;97.50;;;;;;5096656;28;20721;-59
2020/12/29 03:40:51;;;;;;;8.83;7.93;;;2.40;99.90;;;;;;5096661;28;20262;-58
2020/12/29 03:43:18;;;;;;;12.00;7.28;;;2.40;99.90;;;;;;5096186;28;20183;-60
2020/12/29 03:45:45;;;;;;;10.00;6.97;;;2.40;99.90;;;;;;5096376;28;20184;-58
2020/12/29 03:48:11;;;;;;;9.20;7.05;;;2.40;99.90;;;;;;5096283;28;20524;-58
2020/12/29 03:50:38;;;;;;;13.25;9.23;;;2.40;99.90;;;;;;5096459;28;20648;-59
2020/12/29 03:53:04;;;;;;;9.60;7.25;;;2.40;98.10;;;;;;5096223;28;20176;-59
2020/12/29 03:55:30;;;;;;;10.90;8.00;;;2.40;95.30;;;;;;5096225;28;20210;-59
2020/12/29 03:57:56;;;;;;;9.25;7.63;;;2.40;96.10;;;;;;5095299;28;20236;-59
2020/12/29 04:00:22;;;;;;;12.23;8.80;;;2.60;99.90;;;;;;5096427;28;20617;-59
2020/12/29 04:02:47;;;;;;;10.67;7.50;;;2.60;97.30;;;;;;5095115;28;20262;-60
2020/12/29 04:05:13;;;;;;;12.93;8.43;;;2.70;95.80;;;;;;5096122;28;20180;-61
2020/12/29 04:07:39;;;;;;;12.07;8.87;;;2.80;93.10;;;;;;5096126;28;20505;-60
2020/12/29 04:10:05;;;;;;;10.93;8.27;;;2.80;89.20;;;;;;5095920;28;20211;-59
2020/12/29 04:12:31;;;;;;;11.60;8.37;;;2.80;82.20;;;;;;5096109;28;20180;-59
2020/12/29 04:14:57;;;;;;;12.63;8.30;;;3.10;81.20;;;;;;5094769;28;20739;-59
2020/12/29 04:17:23;;;;;;;11.90;8.60;;;2.90;54.50;;;;;;5096063;28;20207;-61
2020/12/29 04:19:48;;;;;;;14.18;9.10;;;2.90;43.10;;;;;;5095727;28;20430;-60
2020/12/29 04:22:14;;;;;;;11.20;9.17;;;2.80;36.60;;;;;;5095926;28;20245;-58
2020/12/29 04:24:40;;;;;;;12.40;9.35;;;2.70;24.80;;;;;;5095530;28;20210;-61
2020/12/29 04:27:06;;;;;;;11.50;8.80;;;2.80;30.10;;;;;;5095658;28;20616;-60
2020/12/29 04:29:31;;;;;;;15.00;9.97;;;2.90;31.80;;;;;;5095607;28;20223;-58
2020/12/29 04:31:57;;;;;;;12.00;8.93;;;2.90;33.40;;;;;;5095787;28;20183;-58
2020/12/29 04:34:22;;;;;;;14.67;10.00;;;3.00;31.50;;;;;;5095467;28;20176;-57
2020/12/29 04:36:55;;;;;;;12.70;9.90;;;3.00;23.20;;;;;;5095651;28;20601;-59
2020/12/29 04:39:21;;;;;;;12.23;8.52;;;2.90;12.30;;;;;;5095689;28;20617;-57
2020/12/29 04:41:52;;;;;;;11.23;8.10;;;2.70;7.60;;;;;;5095463;28;20659;-56
2020/12/29 04:44:19;;;;;;;12.32;8.02;;;2.60;15.60;;;;;;5095183;28;20176;-57
2020/12/29 04:46:45;;;;;;;10.50;8.15;;;2.70;24.90;;;;;;5095195;28;20719;-57
2020/12/29 04:49:12;;;;;;;10.23;7.50;;;2.80;30.20;;;;;;5095309;28;20207;-57
2020/12/29 04:51:39;;;;;;;11.95;7.93;;;2.90;26.60;;;;;;5095213;28;20251;-61
2020/12/29 04:54:08;;;;;;;13.07;9.07;;;2.90;23.00;;;;;;5094945;28;20183;-61
2020/12/29 04:56:34;;;;;;;11.75;8.10;;;3.10;20.70;;;;;;5094180;28;20172;-57
2020/12/29 04:59:03;;;;;;;12.02;8.15;;;3.00;8.60;;;;;;5094984;28;20203;-59
2020/12/29 05:01:31;;;;;;;10.77;7.63;;;3.10;3.90;;;;;;5094884;28;20176;-59
2020/12/29 05:03:57;;;;;;;9.75;7.38;;;3.10;1.00;;;;;;5093464;28;20699;-57
2020/12/29 05:06:22;;;;;;;8.88;7.38;;;3.20;1.00;;;;;;5094498;28;20255;-57
2020/12/29 05:08:49;;;;;;;11.57;8.17;;;3.30;1.00;;;;;;5094546;28;20438;-57
2020/12/29 05:11:17;;;;;;;9.90;7.00;;;3.40;1.00;;;;;;5094232;28;20954;-57
2020/12/29 05:13:43;;;;;;;11.18;7.55;;;3.20;1.00;;;;;;5093918;28;20191;-57
2020/12/29 05:16:09;;;;;;;10.82;7.90;;;3.20;1.00;;;;;;5094461;28;20176;-58
2020/12/29 05:18:35;;;;;;;12.00;6.40;;;3.40;1.00;;;;;;5094446;28;20648;-57
2020/12/29 05:21:01;;;;;;;10.40;7.63;;;3.40;1.00;;;;;;5094623;28;20184;-61
2020/12/29 05:23:28;;;;;;;11.63;7.83;;;3.40;1.00;;;;;;5093401;28;20827;-58
2020/12/29 05:25:54;;;;;;;13.40;7.88;;;3.30;1.00;;;;;;5094039;28;20204;-59
2020/12/29 05:28:19;;;;;;;10.20;6.60;;;3.40;1.00;;;;;;5094137;28;20187;-59
2020/12/29 05:30:53;;;;;;;10.30;6.97;;;3.50;1.00;;;;;;5093513;28;20215;-59
2020/12/29 05:33:19;;;;;;;10.38;7.80;;;3.30;1.00;;;;;;5093764;28;20251;-59
2020/12/29 05:35:44;;;;;;;11.87;7.27;;;3.20;1.00;;;;;;5094097;28;20567;-61
2020/12/29 05:38:11;;;;;;;12.80;8.93;;;3.20;1.00;;;;;;5093895;28;20426;-61
2020/12/29 05:40:37;;;;;;;10.25;6.90;;;3.20;1.00;;;;;;5093895;28;20179;-61
2020/12/29 05:43:03;;;;;;;12.03;8.50;;;3.40;1.00;;;;;;5092774;28;20191;-61
2020/12/29 05:45:36;;;;;;;12.38;8.48;;;3.40;1.00;;;;;;5093531;28;20727;-61
2020/12/29 05:48:03;;;;;;;13.13;8.18;;;3.40;1.00;;;;;;5092698;28;20224;-61
2020/12/29 05:50:30;;;;;;;11.23;7.82;;;3.30;1.00;;;;;;5093626;28;20283;-58
2020/12/29 05:52:58;;;;;;;11.63;8.50;;;3.30;1.00;;;;;;5092583;28;20477;-58
2020/12/29 05:55:24;;;;;;;12.40;8.77;;;3.50;1.00;;;;;;5093422;28;20175;-61
2020/12/29 05:58:09;;;;;;;9.93;7.37;;;3.50;1.00;;;;;;5093602;28;20180;-60
2020/12/29 06:00:40;;;;;;;11.90;7.80;;;3.50;1.00;;;;;;5093547;28;20452;-61
2020/12/29 06:03:07;;;;;;;12.18;7.50;;;3.80;1.00;;;;;;5093756;28;20190;-57
2020/12/29 06:05:35;;;;;;;12.77;7.32;;;4.00;1.00;;;;;;5094396;28;20714;-57
2020/12/29 06:08:03;;;;;;;10.68;7.50;;;4.10;1.00;;;;;;5093870;28;20179;-61
2020/12/29 06:10:30;;;;;;;13.35;7.95;;;4.20;1.00;;;;;;5093367;28;20208;-61
2020/12/29 06:13:01;;;;;;;14.07;7.88;;;4.00;1.00;;;;;;5092376;28;20271;-61
2020/12/29 06:15:37;;;;;;;15.07;8.60;;;3.90;1.00;;;;;;5093436;28;20176;-61
2020/12/29 06:18:05;;;;;;;15.35;8.95;;;3.80;1.00;;;;;;5093830;28;20199;-61
2020/12/29 06:20:58;;;;;;;9.80;6.85;;;3.60;1.00;;;;;;5093584;28;20584;-59
2020/12/29 06:23:28;;;;;;;13.52;8.65;;;3.50;1.00;;;;;;5092836;28;20204;-59
2020/12/29 06:25:57;;;;;;;16.02;8.88;;;3.40;1.00;;;;;;5093510;28;20200;-57
2020/12/29 06:28:27;;;;;;;10.40;8.05;;;3.60;1.00;;;;;;5093652;28;20631;-57
2020/12/29 06:30:55;;;;;;;14.25;9.25;;;3.60;1.00;;;;;;5093157;28;20269;-57
2020/12/29 06:33:23;;;;;;;13.70;7.30;;;3.50;1.00;;;;;;5093049;28;20533;-57
2020/12/29 06:35:53;;;;;;;13.93;8.35;;;3.40;1.00;;;;;;5093249;28;20318;-57
2020/12/29 06:38:25;;;;;;;17.88;8.32;;;3.50;1.00;;;;;;5093252;28;20202;-57
2020/12/29 06:40:52;;;;;;;13.68;8.05;;;3.40;1.00;;;;;;5092202;28;20585;-57
2020/12/29 06:43:18;;;;;;;16.85;9.23;;;3.40;1.00;;;;;;5095990;28;20191;-57
2020/12/29 06:45:44;;;;;;;19.58;8.50;;;3.50;1.00;;;;;;5097202;28;20206;-57
2020/12/29 06:48:21;;;;;;;14.23;8.30;;;3.60;1.00;;;;;;5097186;28;20182;-57
2020/12/29 06:50:47;;;;;;;14.85;7.72;;;3.50;1.00;;;;;;5097023;28;20272;-57
2020/12/29 06:53:17;;;;;;;14.98;8.88;;;3.50;1.00;;;;;;5096778;28;20191;-59
2020/12/29 06:55:48;;;;;;;15.70;9.98;;;3.60;1.00;;;;;;5095971;28;20195;-57
2020/12/29 06:58:34;;;;;;;15.00;7.93;;;3.50;1.00;;;;;;5096843;28;20317;-57
2020/12/29 07:01:22;;;;;;;14.85;9.05;;;3.60;1.00;;;;;;5095887;28;20196;-57
2020/12/29 07:04:00;;;;;;;13.43;9.35;;;3.60;1.00;;;;;;5096511;28;20636;-57
2020/12/29 07:06:30;;;;;;;16.98;10.02;;;3.40;1.00;;;;;;5096737;28;20176;-57
2020/12/29 07:09:07;;;;;;;18.40;10.18;;;3.60;1.00;;;;;;5096594;28;20510;-57
2020/12/29 07:11:33;;;;;;;15.32;8.93;;;3.50;1.00;;;;;;5096546;28;20636;-57
2020/12/29 07:14:05;;;;;;;14.60;9.63;;;3.50;1.00;;;;;;5096378;28;20216;-57
2020/12/29 07:16:31;;;;;;;18.40;9.73;;;3.50;1.00;;;;;;5096578;28;20425;-57
2020/12/29 07:19:12;;;;;;;14.88;9.30;;;3.60;1.00;;;;;;5096779;28;20499;-57
2020/12/29 07:21:38;;;;;;;20.52;12.55;;;3.70;1.00;;;;;;5096666;28;20267;-58
2020/12/29 07:24:05;;;;;;;15.13;9.15;;;3.60;1.00;;;;;;5096325;28;20199;-57
2020/12/29 07:26:37;;;;;;;15.60;9.10;;;3.70;1.00;;;;;;5096539;28;20266;-57
2020/12/29 07:29:06;;;;;;;16.52;8.50;;;3.80;1.00;;;;;;5096147;28;20190;-57
2020/12/29 07:31:44;;;;;;;18.70;9.70;;;3.90;1.00;;;;;;5096186;28;20209;-57
2020/12/29 07:34:11;;;;;;;17.25;8.70;;;4.00;1.00;;;;;;5095877;28;20168;-57
2020/12/29 07:36:47;;;;;;;11.63;7.85;;;4.00;1.00;;;;;;5096090;28;20206;-57
2020/12/29 07:39:14;;;;;;;16.48;9.73;;;4.10;1.00;;;;;;5096628;28;20233;-57
2020/12/29 07:41:41;;;;;;;19.98;11.80;;;4.20;1.00;;;;;;5096711;28;20171;-58
2020/12/29 07:44:07;;;;;;;59.13;27.50;;;4.10;1.00;;;;;;5096020;28;20619;-58
2020/12/29 07:46:33;;;;;;;27.52;15.40;;;4.10;1.00;;;;;;5096343;28;20176;-58
2020/12/29 07:48:59;;;;;;;19.63;12.20;;;4.20;1.00;;;;;;5095840;28;20232;-58
2020/12/29 07:51:26;;;;;;;25.10;13.32;;;4.10;1.00;;;;;;5096078;28;20309;-61
2020/12/29 07:53:52;;;;;;;18.70;10.65;;;4.00;1.00;;;;;;5095213;28;20623;-60
2020/12/29 07:56:18;;;;;;;15.23;9.07;;;3.90;1.00;;;;;;5095733;28;20202;-60
2020/12/29 07:58:44;;;;;;;20.67;13.32;;;4.00;1.00;;;;;;5094899;28;20672;-60
2020/12/29 08:01:11;;;;;;;24.47;14.40;;;4.10;1.00;;;;;;5095835;28;20283;-60
2020/12/29 08:03:37;;;;;;;38.80;20.70;;;4.10;1.00;;;;;;5095424;28;20246;-60
2020/12/29 08:06:03;;;;;;;41.73;24.07;;;4.30;1.00;;;;;;5095570;28;20180;-60
2020/12/29 08:08:28;;;;;;;23.63;14.80;;;4.20;1.00;;;;;;5095649;28;20428;-60
2020/12/29 08:10:54;;;;;;;16.43;10.87;;;4.20;1.00;;;;;;5095438;28;20214;-60
2020/12/29 08:13:20;;;;;;;18.73;11.50;;;4.10;1.00;;;;;;5095244;28;20179;-59
2020/12/29 08:15:47;;;;;;;16.23;10.90;;;4.10;1.00;;;;;;5095563;28;20196;-59
2020/12/29 08:18:20;;;;;;;17.90;12.25;;;4.00;1.00;;;;;;5095404;28;20229;-59
2020/12/29 08:20:50;;;;;;;21.20;11.68;;;3.90;1.00;;;;;;5095240;28;20199;-58
2020/12/29 08:23:18;;;;;;;19.13;11.30;;;3.80;1.00;;;;;;5094207;28;20274;-58
2020/12/29 08:25:51;;;;;;;22.27;12.07;;;3.90;1.00;;;;;;5095501;28;20180;-58
2020/12/29 08:28:17;;;;;;;14.63;10.55;;;3.90;1.00;;;;;;5095258;28;20180;-58
2020/12/29 08:30:43;;;;;;;17.70;11.45;;;4.00;1.00;;;;;;5095155;28;20219;-58
2020/12/29 08:33:11;;;;;;;20.43;12.60;;;4.00;1.00;;;;;;5094935;28;20175;-58
2020/12/29 08:35:44;;;;;;;21.73;13.35;;;3.90;1.00;;;;;;5094833;28;20440;-58
2020/12/29 08:38:11;;;;;;;21.25;13.63;;;4.10;1.00;;;;;;5093868;28;20180;-58
2020/12/29 08:40:44;;;;;;;21.17;13.70;;;3.90;1.00;;;;;;5093995;28;20195;-58
2020/12/29 08:43:10;;;;;;;51.13;29.55;;;3.80;1.00;;;;;;5094861;28;20512;-58
2020/12/29 08:45:35;;;;;;;36.97;22.50;;;4.00;1.50;;;;;;5094948;28;20552;-58
2020/12/29 08:48:01;;;;;;;17.80;12.60;;;4.10;1.00;;;;;;5094794;28;20183;-58
2020/12/29 08:50:29;;;;;;;35.40;20.50;;;4.00;1.00;;;;;;5094752;28;20303;-58
2020/12/29 08:53:08;;;;;;;24.80;15.95;;;4.10;1.00;;;;;;5095002;28;20263;-59
2020/12/29 08:55:36;;;;;;;18.45;12.38;;;4.20;1.00;;;;;;5094928;28;20179;-58
2020/12/29 08:58:02;;;;;;;18.85;11.68;;;4.10;1.00;;;;;;5094730;28;20259;-58
2020/12/29 09:00:29;;;;;;;22.98;15.07;;;4.10;1.00;;;;;;5094392;28;20667;-58
2020/12/29 09:02:56;;;;;;;20.42;13.25;;;4.20;1.00;;;;;;5093596;28;20612;-58
2020/12/29 09:05:23;;;;;;;22.98;12.82;;;4.00;1.00;;;;;;5093683;28;20179;-58
2020/12/29 09:07:49;;;;;;;20.02;12.65;;;4.00;1.00;;;;;;5094354;28;20176;-58
2020/12/29 09:10:16;;;;;;;19.17;13.13;;;4.00;1.00;;;;;;5094326;28;20203;-58
2020/12/29 09:12:42;;;;;;;34.78;20.45;;;4.10;1.00;;;;;;5094325;28;20432;-58
2020/12/29 09:15:09;;;;;;;19.83;13.93;;;4.20;1.00;;;;;;5094151;28;20187;-58
2020/12/29 09:17:36;;;;;;;45.45;20.88;;;4.10;1.00;;;;;;5094344;28;20429;-58
2020/12/29 09:20:21;;;;;;;19.35;13.05;;;4.00;1.00;;;;;;5094224;28;20172;-58
2020/12/29 09:22:52;;;;;;;19.98;13.20;;;4.20;1.00;;;;;;5094149;28;20195;-58
2020/12/29 09:25:29;;;;;;;18.73;13.30;;;4.20;1.00;;;;;;5093894;28;20516;-58
2020/12/29 09:28:26;;;;;;;21.38;14.23;;;4.40;1.00;;;;;;5094158;28;20184;-58
2020/12/29 09:31:05;;;;;;;19.05;12.43;;;4.30;1.00;;;;;;5094154;28;20332;-58
2020/12/29 09:33:32;;;;;;;19.42;13.20;;;4.40;1.00;;;;;;5093976;28;20255;-58
2020/12/29 09:35:59;;;;;;;21.52;12.68;;;4.50;1.00;;;;;;5093852;28;20189;-58
2020/12/29 09:38:26;;;;;;;21.35;13.40;;;4.20;1.00;;;;;;5093870;28;20194;-58
2020/12/29 09:40:52;;;;;;;15.40;10.80;;;4.10;1.00;;;;;;5093738;28;20573;-58
2020/12/29 09:43:18;;;;;;;19.13;12.18;;;4.20;1.00;;;;;;5093644;28;20180;-58
2020/12/29 09:45:45;;;;;;;18.30;12.05;;;4.40;1.00;;;;;;5093591;28;20178;-58
2020/12/29 09:48:12;;;;;;;18.35;12.35;;;4.50;1.00;;;;;;5093766;28;20195;-58
2020/12/29 09:50:38;;;;;;;21.35;14.05;;;4.70;1.00;;;;;;5093497;28;20196;-57
2020/12/29 09:53:03;;;;;;;18.70;12.33;;;4.60;1.00;;;;;;5093463;28;20183;-57
2020/12/29 09:55:29;;;;;;;27.93;17.63;;;4.60;1.00;;;;;;5093671;28;20172;-57
2020/12/29 09:57:57;;;;;;;81.80;43.17;;;4.70;1.00;;;;;;5092991;28;20463;-57
2020/12/29 10:00:23;;;;;;;16.23;11.77;;;4.90;1.00;;;;;;5093344;28;20498;-58
2020/12/29 10:02:49;;;;;;;18.10;10.90;;;5.20;1.00;;;;;;5093427;28;20262;-57
2020/12/29 10:05:15;;;;;;;18.95;11.40;;;5.30;1.00;;;;;;5093315;28;20176;-57
2020/12/29 10:07:43;;;;;;;16.30;11.73;;;5.40;1.00;;;;;;5093497;28;20505;-57
2020/12/29 10:10:09;;;;;;;18.80;13.18;;;5.50;1.00;;;;;;5093414;28;20211;-58
2020/12/29 10:12:34;;;;;;;15.10;11.50;;;5.60;99.90;;;;;;5093584;28;20499;-58
2020/12/29 10:15:00;;;;;;;15.00;10.93;;;5.50;99.90;;;;;;5091757;28;20619;-57
2020/12/29 10:17:25;;;;;;;17.33;12.00;;;5.80;99.90;;;;;;5096197;28;20175;-58
2020/12/29 10:19:51;;;;;;;18.77;12.20;;;5.70;99.90;;;;;;5096348;28;20191;-57
2020/12/29 10:22:16;;;;;;;16.23;11.53;;;5.80;99.90;;;;;;5097133;28;20187;-58
2020/12/29 10:24:42;;;;;;;14.63;10.50;;;5.80;99.90;;;;;;5096422;28;20194;-57
2020/12/29 10:27:08;;;;;;;17.53;11.90;;;5.80;99.90;;;;;;5097337;28;20182;-57
2020/12/29 10:29:33;;;;;;;15.23;10.20;;;5.80;99.90;;;;;;5096993;28;20176;-58
2020/12/29 10:31:59;;;;;;;13.57;10.60;;;5.80;99.90;;;;;;5097252;28;20179;-58
2020/12/29 10:34:24;;;;;;;16.40;10.60;;;5.80;99.90;;;;;;5096601;28;20191;-57
2020/12/29 10:36:50;;;;;;;13.37;10.53;;;5.80;99.90;;;;;;5097375;28;20176;-57
2020/12/29 10:39:15;;;;;;;14.43;10.40;;;5.90;99.90;;;;;;5097011;28;20217;-58
2020/12/29 10:41:41;;;;;;;12.20;9.27;;;6.00;99.90;;;;;;5097006;28;20188;-58
2020/12/29 10:44:08;;;;;;;14.27;10.65;;;6.00;99.90;;;;;;5096848;28;20188;-58
2020/12/29 10:46:34;;;;;;;13.05;10.25;;;6.10;63.50;;;;;;5096672;28;20172;-60
2020/12/29 10:49:01;;;;;;;12.85;9.50;;;6.30;21.60;;;;;;5097036;28;20184;-57
2020/12/29 10:51:27;;;;;;;13.00;10.55;;;6.40;1.00;;;;;;5095549;28;20568;-59
2020/12/29 10:53:54;;;;;;;13.93;9.33;;;6.70;1.00;;;;;;5096694;28;20179;-59
2020/12/29 10:56:20;;;;;;;15.52;9.70;;;6.70;99.90;;;;;;5096363;28;20255;-59
2020/12/29 10:58:46;;;;;;;12.77;9.10;;;6.80;99.90;;;;;;5096723;28;20164;-59
2020/12/29 11:01:15;;;;;;;18.50;12.80;;;7.00;99.90;;;;;;5096457;28;20199;-58
2020/12/29 11:03:41;;;;;;;17.25;10.90;;;6.70;1.00;;;;;;5096394;28;20180;-58
2020/12/29 11:06:14;;;;;;;13.13;9.70;;;6.50;99.90;;;;;;5096635;28;20179;-58
2020/12/29 11:08:40;;;;;;;13.27;9.27;;;6.60;1.00;;;;;;5096206;28;20258;-58
2020/12/29 11:11:06;;;;;;;14.82;11.50;;;6.60;99.90;;;;;;5096402;28;20211;-58
2020/12/29 11:13:31;;;;;;;11.87;9.07;;;6.50;99.90;;;;;;5096163;28;20172;-61
2020/12/29 11:15:57;;;;;;;9.93;8.63;;;6.50;99.90;;;;;;5095429;28;20176;-61
2020/12/29 11:18:30;;;;;;;10.40;8.13;;;6.40;99.90;;;;;;5095306;28;20789;-61
2020/12/29 11:20:59;;;;;;;11.02;8.60;;;6.20;99.90;;;;;;5097043;28;20422;-59
2020/12/29 11:23:33;;;;;;;10.57;8.35;;;6.30;1.00;;;;;;5096176;28;20180;-59
2020/12/29 11:25:59;;;;;;;12.38;9.10;;;6.30;99.90;;;;;;5095669;28;20188;-60
2020/12/29 11:28:25;;;;;;;11.77;8.70;;;6.40;99.90;;;;;;5095532;28;20654;-57
2020/12/29 11:30:51;;;;;;;10.53;9.00;;;6.40;99.90;;;;;;5096321;28;20469;-57
2020/12/29 11:33:17;;;;;;;11.33;9.00;;;6.20;99.90;;;;;;5096448;28;20182;-58
2020/12/29 11:35:47;;;;;;;10.85;8.52;;;6.40;99.90;;;;;;5095911;28;20422;-58
2020/12/29 11:38:17;;;;;;;42.85;24.77;;;6.50;1.00;;;;;;5095313;28;20171;-61
2020/12/29 11:40:44;;;;;;;18.00;11.75;;;6.60;1.00;;;;;;5096081;28;20172;-57
2020/12/29 11:43:09;;;;;;;13.65;9.45;;;6.70;1.00;;;;;;5095879;28;20188;-57
2020/12/29 11:45:36;;;;;;;10.67;8.93;;;6.30;1.00;;;;;;5096025;28;20253;-57
2020/12/29 11:48:01;;;;;;;11.75;9.55;;;6.30;1.00;;;;;;5096122;28;20428;-58
2020/12/29 11:50:27;;;;;;;10.33;9.10;;;6.20;1.00;;;;;;5095379;28;20203;-58
2020/12/29 11:52:53;;;;;;;11.60;8.43;;;6.30;1.00;;;;;;5095693;28;20237;-57
2020/12/29 11:55:18;;;;;;;9.57;8.40;;;6.10;1.00;;;;;;5094802;28;20273;-57
2020/12/29 11:57:44;;;;;;;9.90;7.67;;;6.20;1.00;;;;;;5095601;28;20191;-57
2020/12/29 12:00:09;;;;;;;10.50;8.40;;;6.20;1.00;;;;;;5095910;28;20627;-61
2020/12/29 12:02:35;;;;;;;11.10;8.50;;;6.30;1.00;;;;;;5095355;28;20198;-61
2020/12/29 12:05:01;;;;;;;12.20;9.50;;;6.30;1.00;;;;;;5093947;28;20283;-61
2020/12/29 12:07:26;;;;;;;11.30;8.07;;;6.20;1.00;;;;;;5094932;28;20610;-60
2020/12/29 12:09:52;;;;;;;14.57;8.70;;;6.20;1.00;;;;;;5095180;28;20218;-60
2020/12/29 12:12:18;;;;;;;9.70;8.20;;;6.00;1.00;;;;;;5095063;28;20541;-60
2020/12/29 12:14:44;;;;;;;13.27;8.83;;;6.00;1.00;;;;;;5093978;28;20517;-60
2020/12/29 12:17:09;;;;;;;13.73;8.77;;;5.90;1.00;;;;;;5094871;28;20225;-61
2020/12/29 12:19:35;;;;;;;11.87;7.83;;;6.00;1.00;;;;;;5095702;28;20198;-60
2020/12/29 12:22:03;;;;;;;21.47;13.77;;;6.10;1.00;;;;;;5095553;28;20180;-61
2020/12/29 12:24:29;;;;;;;33.83;20.38;;;6.30;1.00;;;;;;5095483;28;20183;-60
2020/12/29 12:26:57;;;;;;;11.07;8.33;;;6.20;1.00;;;;;;5095397;28;20176;-61
2020/12/29 12:29:29;;;;;;;9.18;7.40;;;6.10;1.00;;;;;;5093779;28;20187;-60
2020/12/29 12:31:58;;;;;;;19.23;8.93;;;6.00;1.00;;;;;;5093884;28;20175;-60
2020/12/29 12:34:27;;;;;;;10.55;7.63;;;6.10;1.00;;;;;;5094062;28;20203;-60
2020/12/29 12:36:56;;;;;;;11.27;7.65;;;6.10;1.00;;;;;;5094608;28;20178;-60
2020/12/29 12:39:32;;;;;;;11.32;7.55;;;6.20;1.00;;;;;;5093239;28;20186;-61
2020/12/29 12:41:58;;;;;;;10.63;7.35;;;6.30;1.00;;;;;;5079858;28;20268;-61
2020/12/29 12:44:24;;;;;;;11.17;7.10;;;6.50;1.00;;;;;;5073914;28;20172;-61
2020/12/29 12:46:49;;;;;;;13.30;10.20;;;6.50;99.90;;;;;;5074958;28;20712;-61
2020/12/29 12:49:15;;;;;;;8.13;7.30;;;6.70;99.90;;;;;;5074059;28;20540;-61
2020/12/29 12:51:47;;;;;;;11.43;7.30;;;6.60;1.00;;;;;;5074042;28;20223;-61
2020/12/29 12:54:13;;;;;;;8.57;7.15;;;6.40;1.00;;;;;;5072880;28;20172;-60